sensor_id;sensor_type;location;lat;lon;timestamp;temperature;humidity
76878;DHT22;65843;50.692;12.844;2023-04-06T00:00:44;19.20;59.70
76878;DHT22;65843;50.692;12.844;2023-04-06T00:01:44;19.20;59.60
76878;DHT22;65843;50.692;12.844;2023-04-06T00:02:47;19.20;59.00
76878;DHT22;65843;50.692;12.844;2023-04-06T00:03:48;19.20;59.40
76878;DHT22;65843;50.692;12.844;2023-04-06T00:04:49;19.20;59.50
76878;DHT22;65843;50.692;12.844;2023-04-06T00:05:50;19.20;59.60
76878;DHT22;65843;50.692;12.844;2023-04-06T00:06:51;19.20;59.60
76878;DHT22;65843;50.692;12.844;2023-04-06T00:07:52;19.20;59.40
76878;DHT22;65843;50.692;12.844;2023-04-06T00:08:55;19.20;59.20
76878;DHT22;65843;50.692;12.844;2023-04-06T00:09:56;19.20;59.20
76878;DHT22;65843;50.692;12.844;2023-04-06T00:10:57;19.20;59.50
76878;DHT22;65843;50.692;12.844;2023-04-06T00:11:58;19.20;59.60
76878;DHT22;65843;50.692;12.844;2023-04-06T00:12:59;19.20;59.50
76878;DHT22;65843;50.692;12.844;2023-04-06T00:14:00;19.20;59.40
76878;DHT22;65843;50.692;12.844;2023-04-06T00:15:01;19.20;59.00
76878;DHT22;65843;50.692;12.844;2023-04-06T00:16:02;19.20;59.40
76878;DHT22;65843;50.692;12.844;2023-04-06T00:17:03;19.20;59.40
76878;DHT22;65843;50.692;12.844;2023-04-06T00:18:04;19.20;59.00
76878;DHT22;65843;50.692;12.844;2023-04-06T00:19:05;19.20;59.10
76878;DHT22;65843;50.692;12.844;2023-04-06T00:20:06;19.20;59.30
76878;DHT22;65843;50.692;12.844;2023-04-06T00:21:11;19.20;59.50
76878;DHT22;65843;50.692;12.844;2023-04-06T00:22:12;19.20;59.40
76878;DHT22;65843;50.692;12.844;2023-04-06T00:23:13;19.20;59.60
76878;DHT22;65843;50.692;12.844;2023-04-06T00:24:14;19.20;59.60
76878;DHT22;65843;50.692;12.844;2023-04-06T00:25:15;19.20;59.60
76878;DHT22;65843;50.692;12.844;2023-04-06T00:26:17;19.20;59.70
76878;DHT22;65843;50.692;12.844;2023-04-06T00:27:17;19.20;59.50
76878;DHT22;65843;50.692;12.844;2023-04-06T00:28:18;19.20;59.60
76878;DHT22;65843;50.692;12.844;2023-04-06T00:29:25;19.20;59.70
76878;DHT22;65843;50.692;12.844;2023-04-06T00:30:26;19.20;59.80
76878;DHT22;65843;50.692;12.844;2023-04-06T00:31:27;19.20;59.80
76878;DHT22;65843;50.692;12.844;2023-04-06T00:32:28;19.20;59.60
76878;DHT22;65843;50.692;12.844;2023-04-06T00:33:29;19.20;59.60
76878;DHT22;65843;50.692;12.844;2023-04-06T00:34:30;19.20;59.70
76878;DHT22;65843;50.692;12.844;2023-04-06T00:35:31;19.20;59.90
76878;DHT22;65843;50.692;12.844;2023-04-06T00:36:32;19.20;59.80
76878;DHT22;65843;50.692;12.844;2023-04-06T00:37:33;19.20;57.90
76878;DHT22;65843;50.692;12.844;2023-04-06T00:38:34;19.20;58.80
76878;DHT22;65843;50.692;12.844;2023-04-06T00:39:35;19.20;59.00
76878;DHT22;65843;50.692;12.844;2023-04-06T00:40:36;19.20;59.20
76878;DHT22;65843;50.692;12.844;2023-04-06T00:41:37;19.20;58.80
76878;DHT22;65843;50.692;12.844;2023-04-06T00:42:40;19.20;59.00
76878;DHT22;65843;50.692;12.844;2023-04-06T00:43:41;19.20;59.00
76878;DHT22;65843;50.692;12.844;2023-04-06T00:44:42;19.20;58.50
76878;DHT22;65843;50.692;12.844;2023-04-06T00:45:43;19.20;59.10
76878;DHT22;65843;50.692;12.844;2023-04-06T00:46:44;19.20;58.70
76878;DHT22;65843;50.692;12.844;2023-04-06T00:47:45;19.20;58.70
76878;DHT22;65843;50.692;12.844;2023-04-06T00:48:46;19.20;58.60
76878;DHT22;65843;50.692;12.844;2023-04-06T00:49:47;19.20;59.20
76878;DHT22;65843;50.692;12.844;2023-04-06T00:50:48;19.20;59.10
76878;DHT22;65843;50.692;12.844;2023-04-06T00:51:49;19.20;58.80
76878;DHT22;65843;50.692;12.844;2023-04-06T00:52:50;19.20;59.10
76878;DHT22;65843;50.692;12.844;2023-04-06T00:53:51;19.20;58.80
76878;DHT22;65843;50.692;12.844;2023-04-06T00:54:52;19.10;59.20
76878;DHT22;65843;50.692;12.844;2023-04-06T00:55:53;19.20;59.00
76878;DHT22;65843;50.692;12.844;2023-04-06T00:56:54;19.20;59.30
76878;DHT22;65843;50.692;12.844;2023-04-06T00:57:56;19.20;59.30
76878;DHT22;65843;50.692;12.844;2023-04-06T00:58:58;19.10;59.10
76878;DHT22;65843;50.692;12.844;2023-04-06T00:59:59;19.10;59.20
76878;DHT22;65843;50.692;12.844;2023-04-06T01:01:00;19.10;59.10
76878;DHT22;65843;50.692;12.844;2023-04-06T01:02:01;19.10;59.20
76878;DHT22;65843;50.692;12.844;2023-04-06T01:03:02;19.10;59.90
76878;DHT22;65843;50.692;12.844;2023-04-06T01:04:04;19.10;59.40
76878;DHT22;65843;50.692;12.844;2023-04-06T01:05:05;19.10;59.20
76878;DHT22;65843;50.692;12.844;2023-04-06T01:06:06;19.10;59.80
76878;DHT22;65843;50.692;12.844;2023-04-06T01:07:07;19.10;59.40
76878;DHT22;65843;50.692;12.844;2023-04-06T01:08:08;19.10;59.50
76878;DHT22;65843;50.692;12.844;2023-04-06T01:09:09;19.10;59.60
76878;DHT22;65843;50.692;12.844;2023-04-06T01:10:10;19.10;59.70
76878;DHT22;65843;50.692;12.844;2023-04-06T01:11:11;19.10;59.80
76878;DHT22;65843;50.692;12.844;2023-04-06T01:12:12;19.10;59.60
76878;DHT22;65843;50.692;12.844;2023-04-06T01:13:13;19.10;59.90
76878;DHT22;65843;50.692;12.844;2023-04-06T01:14:14;19.10;59.80
76878;DHT22;65843;50.692;12.844;2023-04-06T01:15:15;19.10;60.00
76878;DHT22;65843;50.692;12.844;2023-04-06T01:16:16;19.10;60.00
76878;DHT22;65843;50.692;12.844;2023-04-06T01:17:17;19.10;60.10
76878;DHT22;65843;50.692;12.844;2023-04-06T01:18:18;19.10;59.70
76878;DHT22;65843;50.692;12.844;2023-04-06T01:19:19;19.10;60.00
76878;DHT22;65843;50.692;12.844;2023-04-06T01:20:21;19.10;60.00
76878;DHT22;65843;50.692;12.844;2023-04-06T01:21:22;19.10;60.10
76878;DHT22;65843;50.692;12.844;2023-04-06T01:22:24;19.10;60.20
76878;DHT22;65843;50.692;12.844;2023-04-06T01:23:25;19.10;60.20
76878;DHT22;65843;50.692;12.844;2023-04-06T01:24:26;19.10;60.20
76878;DHT22;65843;50.692;12.844;2023-04-06T01:25:27;19.10;60.20
76878;DHT22;65843;50.692;12.844;2023-04-06T01:26:28;19.10;60.00
76878;DHT22;65843;50.692;12.844;2023-04-06T01:27:30;19.10;59.80
76878;DHT22;65843;50.692;12.844;2023-04-06T01:28:30;19.10;60.00
76878;DHT22;65843;50.692;12.844;2023-04-06T01:29:31;19.10;60.30
76878;DHT22;65843;50.692;12.844;2023-04-06T01:30:32;19.10;60.30
76878;DHT22;65843;50.692;12.844;2023-04-06T01:31:33;19.10;60.20
76878;DHT22;65843;50.692;12.844;2023-04-06T01:32:35;19.10;60.20
76878;DHT22;65843;50.692;12.844;2023-04-06T01:33:36;19.10;60.20
76878;DHT22;65843;50.692;12.844;2023-04-06T01:34:37;19.10;60.40
76878;DHT22;65843;50.692;12.844;2023-04-06T01:35:38;19.10;60.10
76878;DHT22;65843;50.692;12.844;2023-04-06T01:36:39;19.10;60.20
76878;DHT22;65843;50.692;12.844;2023-04-06T01:37:40;19.10;60.30
76878;DHT22;65843;50.692;12.844;2023-04-06T01:38:41;19.10;60.40
76878;DHT22;65843;50.692;12.844;2023-04-06T01:39:42;19.10;60.30
76878;DHT22;65843;50.692;12.844;2023-04-06T01:40:44;19.10;60.40
76878;DHT22;65843;50.692;12.844;2023-04-06T01:41:45;19.10;60.50
76878;DHT22;65843;50.692;12.844;2023-04-06T01:42:47;19.10;60.40
76878;DHT22;65843;50.692;12.844;2023-04-06T01:43:48;19.10;60.50
76878;DHT22;65843;50.692;12.844;2023-04-06T01:44:50;19.10;60.70
76878;DHT22;65843;50.692;12.844;2023-04-06T01:45:51;19.10;60.70
76878;DHT22;65843;50.692;12.844;2023-04-06T01:46:52;19.10;60.80
76878;DHT22;65843;50.692;12.844;2023-04-06T01:47:53;19.10;60.80
76878;DHT22;65843;50.692;12.844;2023-04-06T01:48:54;19.10;60.80
76878;DHT22;65843;50.692;12.844;2023-04-06T01:49:55;19.10;60.50
76878;DHT22;65843;50.692;12.844;2023-04-06T01:50:56;19.10;60.70
76878;DHT22;65843;50.692;12.844;2023-04-06T01:51:57;19.10;60.80
76878;DHT22;65843;50.692;12.844;2023-04-06T01:52:58;19.10;60.70
76878;DHT22;65843;50.692;12.844;2023-04-06T01:53:59;19.10;60.80
76878;DHT22;65843;50.692;12.844;2023-04-06T01:55:00;19.10;60.90
76878;DHT22;65843;50.692;12.844;2023-04-06T01:56:01;19.10;61.00
76878;DHT22;65843;50.692;12.844;2023-04-06T01:57:02;19.10;60.50
76878;DHT22;65843;50.692;12.844;2023-04-06T01:58:03;19.10;60.60
76878;DHT22;65843;50.692;12.844;2023-04-06T01:59:04;19.10;60.90
76878;DHT22;65843;50.692;12.844;2023-04-06T02:00:05;19.10;60.90
76878;DHT22;65843;50.692;12.844;2023-04-06T02:01:06;19.10;60.50
76878;DHT22;65843;50.692;12.844;2023-04-06T02:02:07;19.10;60.90
76878;DHT22;65843;50.692;12.844;2023-04-06T02:03:08;19.10;60.90
76878;DHT22;65843;50.692;12.844;2023-04-06T02:04:09;19.10;60.60
76878;DHT22;65843;50.692;12.844;2023-04-06T02:05:10;19.10;60.90
76878;DHT22;65843;50.692;12.844;2023-04-06T02:06:11;19.10;60.90
76878;DHT22;65843;50.692;12.844;2023-04-06T02:07:12;19.10;61.20
76878;DHT22;65843;50.692;12.844;2023-04-06T02:08:13;19.20;61.10
76878;DHT22;65843;50.692;12.844;2023-04-06T02:09:14;19.20;61.00
76878;DHT22;65843;50.692;12.844;2023-04-06T02:10:15;19.20;61.10
76878;DHT22;65843;50.692;12.844;2023-04-06T02:11:16;19.20;60.90
76878;DHT22;65843;50.692;12.844;2023-04-06T02:12:17;19.20;61.00
76878;DHT22;65843;50.692;12.844;2023-04-06T02:13:18;19.20;61.00
76878;DHT22;65843;50.692;12.844;2023-04-06T02:14:19;19.20;61.30
76878;DHT22;65843;50.692;12.844;2023-04-06T02:15:20;19.20;61.10
76878;DHT22;65843;50.692;12.844;2023-04-06T02:16:21;19.20;60.80
76878;DHT22;65843;50.692;12.844;2023-04-06T02:17:22;19.20;60.90
76878;DHT22;65843;50.692;12.844;2023-04-06T02:18:23;19.20;60.90
76878;DHT22;65843;50.692;12.844;2023-04-06T02:19:24;19.20;60.90
76878;DHT22;65843;50.692;12.844;2023-04-06T02:20:25;19.20;61.00
76878;DHT22;65843;50.692;12.844;2023-04-06T02:21:26;19.20;60.80
76878;DHT22;65843;50.692;12.844;2023-04-06T02:22:27;19.20;60.70
76878;DHT22;65843;50.692;12.844;2023-04-06T02:23:28;19.20;61.10
76878;DHT22;65843;50.692;12.844;2023-04-06T02:24:29;19.20;60.80
76878;DHT22;65843;50.692;12.844;2023-04-06T02:25:30;19.20;60.70
76878;DHT22;65843;50.692;12.844;2023-04-06T02:26:31;19.20;60.70
76878;DHT22;65843;50.692;12.844;2023-04-06T02:27:31;19.20;61.10
76878;DHT22;65843;50.692;12.844;2023-04-06T02:28:32;19.20;60.70
76878;DHT22;65843;50.692;12.844;2023-04-06T02:29:33;19.20;60.70
76878;DHT22;65843;50.692;12.844;2023-04-06T02:30:34;19.20;60.80
76878;DHT22;65843;50.692;12.844;2023-04-06T02:31:36;19.30;60.90
76878;DHT22;65843;50.692;12.844;2023-04-06T02:32:37;19.30;60.70
76878;DHT22;65843;50.692;12.844;2023-04-06T02:33:37;19.20;60.90
76878;DHT22;65843;50.692;12.844;2023-04-06T02:34:39;19.20;61.00
76878;DHT22;65843;50.692;12.844;2023-04-06T02:35:39;19.20;60.90
76878;DHT22;65843;50.692;12.844;2023-04-06T02:36:41;19.20;61.10
76878;DHT22;65843;50.692;12.844;2023-04-06T02:37:42;19.20;61.10
76878;DHT22;65843;50.692;12.844;2023-04-06T02:38:42;19.20;61.20
76878;DHT22;65843;50.692;12.844;2023-04-06T02:39:44;19.20;60.90
76878;DHT22;65843;50.692;12.844;2023-04-06T02:40:45;19.30;61.10
76878;DHT22;65843;50.692;12.844;2023-04-06T02:41:46;19.30;61.10
76878;DHT22;65843;50.692;12.844;2023-04-06T02:42:47;19.30;60.80
76878;DHT22;65843;50.692;12.844;2023-04-06T02:43:48;19.30;60.90
76878;DHT22;65843;50.692;12.844;2023-04-06T02:44:49;19.30;61.20
76878;DHT22;65843;50.692;12.844;2023-04-06T02:45:50;19.30;60.10
76878;DHT22;65843;50.692;12.844;2023-04-06T02:46:51;19.30;61.00
76878;DHT22;65843;50.692;12.844;2023-04-06T02:47:52;19.30;61.00
76878;DHT22;65843;50.692;12.844;2023-04-06T02:48:53;19.30;61.10
76878;DHT22;65843;50.692;12.844;2023-04-06T02:49:54;19.30;60.90
76878;DHT22;65843;50.692;12.844;2023-04-06T02:50:55;19.30;60.80
76878;DHT22;65843;50.692;12.844;2023-04-06T02:51:56;19.30;60.80
76878;DHT22;65843;50.692;12.844;2023-04-06T02:52:57;19.30;60.80
76878;DHT22;65843;50.692;12.844;2023-04-06T02:53:58;19.30;60.70
76878;DHT22;65843;50.692;12.844;2023-04-06T02:54:59;19.30;61.20
76878;DHT22;65843;50.692;12.844;2023-04-06T02:56:00;19.30;61.00
76878;DHT22;65843;50.692;12.844;2023-04-06T02:57:01;19.30;61.10
76878;DHT22;65843;50.692;12.844;2023-04-06T02:58:02;19.30;60.70
76878;DHT22;65843;50.692;12.844;2023-04-06T02:59:03;19.30;60.90
76878;DHT22;65843;50.692;12.844;2023-04-06T03:00:04;19.30;61.30
76878;DHT22;65843;50.692;12.844;2023-04-06T03:01:05;19.30;61.10
76878;DHT22;65843;50.692;12.844;2023-04-06T03:02:06;19.30;61.00
76878;DHT22;65843;50.692;12.844;2023-04-06T03:03:07;19.30;61.10
76878;DHT22;65843;50.692;12.844;2023-04-06T03:04:08;19.30;60.90
76878;DHT22;65843;50.692;12.844;2023-04-06T03:05:09;19.30;61.10
76878;DHT22;65843;50.692;12.844;2023-04-06T03:06:10;19.30;61.00
76878;DHT22;65843;50.692;12.844;2023-04-06T03:07:11;19.30;61.10
76878;DHT22;65843;50.692;12.844;2023-04-06T03:08:12;19.30;61.20
76878;DHT22;65843;50.692;12.844;2023-04-06T03:09:12;19.30;60.90
76878;DHT22;65843;50.692;12.844;2023-04-06T03:10:15;19.30;60.50
76878;DHT22;65843;50.692;12.844;2023-04-06T03:11:16;19.30;60.50
76878;DHT22;65843;50.692;12.844;2023-04-06T03:12:17;19.20;60.40
76878;DHT22;65843;50.692;12.844;2023-04-06T03:13:18;19.20;60.50
76878;DHT22;65843;50.692;12.844;2023-04-06T03:14:19;19.30;60.70
76878;DHT22;65843;50.692;12.844;2023-04-06T03:15:22;19.20;60.70
76878;DHT22;65843;50.692;12.844;2023-04-06T03:16:23;19.20;61.40
76878;DHT22;65843;50.692;12.844;2023-04-06T03:17:24;19.20;61.10
76878;DHT22;65843;50.692;12.844;2023-04-06T03:18:25;19.20;60.90
76878;DHT22;65843;50.692;12.844;2023-04-06T03:19:26;19.30;61.20
76878;DHT22;65843;50.692;12.844;2023-04-06T03:20:27;19.30;61.10
76878;DHT22;65843;50.692;12.844;2023-04-06T03:21:28;19.30;61.40
76878;DHT22;65843;50.692;12.844;2023-04-06T03:22:29;19.30;61.30
76878;DHT22;65843;50.692;12.844;2023-04-06T03:23:29;19.30;61.20
76878;DHT22;65843;50.692;12.844;2023-04-06T03:24:30;19.30;61.20
76878;DHT22;65843;50.692;12.844;2023-04-06T03:25:31;19.30;61.10
76878;DHT22;65843;50.692;12.844;2023-04-06T03:26:32;19.30;61.30
76878;DHT22;65843;50.692;12.844;2023-04-06T03:27:33;19.30;61.00
76878;DHT22;65843;50.692;12.844;2023-04-06T03:28:34;19.30;60.80
76878;DHT22;65843;50.692;12.844;2023-04-06T03:29:35;19.30;61.10
76878;DHT22;65843;50.692;12.844;2023-04-06T03:30:36;19.30;61.00
76878;DHT22;65843;50.692;12.844;2023-04-06T03:31:37;19.30;60.40
76878;DHT22;65843;50.692;12.844;2023-04-06T03:32:38;19.30;60.70
76878;DHT22;65843;50.692;12.844;2023-04-06T03:33:39;19.30;60.60
76878;DHT22;65843;50.692;12.844;2023-04-06T03:34:40;19.30;60.60
76878;DHT22;65843;50.692;12.844;2023-04-06T03:35:41;19.30;60.80
76878;DHT22;65843;50.692;12.844;2023-04-06T03:36:42;19.30;60.30
76878;DHT22;65843;50.692;12.844;2023-04-06T03:37:43;19.30;60.70
76878;DHT22;65843;50.692;12.844;2023-04-06T03:38:44;19.30;60.40
76878;DHT22;65843;50.692;12.844;2023-04-06T03:39:45;19.30;60.60
76878;DHT22;65843;50.692;12.844;2023-04-06T03:40:46;19.30;60.50
76878;DHT22;65843;50.692;12.844;2023-04-06T03:41:47;19.30;60.80
76878;DHT22;65843;50.692;12.844;2023-04-06T03:42:48;19.30;60.60
76878;DHT22;65843;50.692;12.844;2023-04-06T03:43:49;19.30;60.50
76878;DHT22;65843;50.692;12.844;2023-04-06T03:44:50;19.30;60.40
76878;DHT22;65843;50.692;12.844;2023-04-06T03:45:51;19.30;60.70
76878;DHT22;65843;50.692;12.844;2023-04-06T03:46:52;19.30;60.70
76878;DHT22;65843;50.692;12.844;2023-04-06T03:47:53;19.30;60.90
76878;DHT22;65843;50.692;12.844;2023-04-06T03:48:54;19.30;61.10
76878;DHT22;65843;50.692;12.844;2023-04-06T03:49:55;19.30;60.90
76878;DHT22;65843;50.692;12.844;2023-04-06T03:50:56;19.30;60.50
76878;DHT22;65843;50.692;12.844;2023-04-06T03:51:57;19.30;60.80
76878;DHT22;65843;50.692;12.844;2023-04-06T03:52:58;19.30;60.80
76878;DHT22;65843;50.692;12.844;2023-04-06T03:53:59;19.30;60.20
76878;DHT22;65843;50.692;12.844;2023-04-06T03:55:00;19.30;60.80
76878;DHT22;65843;50.692;12.844;2023-04-06T03:56:01;19.30;60.60
76878;DHT22;65843;50.692;12.844;2023-04-06T03:57:02;19.30;60.80
76878;DHT22;65843;50.692;12.844;2023-04-06T03:58:02;19.30;60.10
76878;DHT22;65843;50.692;12.844;2023-04-06T03:59:03;19.30;60.60
76878;DHT22;65843;50.692;12.844;2023-04-06T04:00:05;19.30;60.80
76878;DHT22;65843;50.692;12.844;2023-04-06T04:01:06;19.30;61.20
76878;DHT22;65843;50.692;12.844;2023-04-06T04:02:07;19.30;60.80
76878;DHT22;65843;50.692;12.844;2023-04-06T04:03:08;19.30;61.40
76878;DHT22;65843;50.692;12.844;2023-04-06T04:04:09;19.30;60.90
76878;DHT22;65843;50.692;12.844;2023-04-06T04:05:10;19.30;61.10
76878;DHT22;65843;50.692;12.844;2023-04-06T04:06:11;19.30;61.20
76878;DHT22;65843;50.692;12.844;2023-04-06T04:07:12;19.30;61.80
76878;DHT22;65843;50.692;12.844;2023-04-06T04:08:13;19.30;61.10
76878;DHT22;65843;50.692;12.844;2023-04-06T04:09:14;19.30;61.10
76878;DHT22;65843;50.692;12.844;2023-04-06T04:10:15;19.30;61.50
76878;DHT22;65843;50.692;12.844;2023-04-06T04:11:16;19.30;62.30
76878;DHT22;65843;50.692;12.844;2023-04-06T04:12:17;19.30;61.40
76878;DHT22;65843;50.692;12.844;2023-04-06T04:13:18;19.30;61.40
76878;DHT22;65843;50.692;12.844;2023-04-06T04:14:19;19.30;61.40
76878;DHT22;65843;50.692;12.844;2023-04-06T04:15:21;19.30;61.40
76878;DHT22;65843;50.692;12.844;2023-04-06T04:16:21;19.30;61.10
76878;DHT22;65843;50.692;12.844;2023-04-06T04:17:23;19.30;61.40
76878;DHT22;65843;50.692;12.844;2023-04-06T04:18:24;19.30;61.30
76878;DHT22;65843;50.692;12.844;2023-04-06T04:19:25;19.30;61.20
76878;DHT22;65843;50.692;12.844;2023-04-06T04:20:26;19.30;60.90
76878;DHT22;65843;50.692;12.844;2023-04-06T04:21:29;19.30;61.20
76878;DHT22;65843;50.692;12.844;2023-04-06T04:22:30;19.20;61.00
76878;DHT22;65843;50.692;12.844;2023-04-06T04:23:32;19.30;61.20
76878;DHT22;65843;50.692;12.844;2023-04-06T04:24:33;19.20;61.10
76878;DHT22;65843;50.692;12.844;2023-04-06T04:25:34;19.20;61.10
76878;DHT22;65843;50.692;12.844;2023-04-06T04:26:35;19.20;61.10
76878;DHT22;65843;50.692;12.844;2023-04-06T04:27:36;19.20;61.10
76878;DHT22;65843;50.692;12.844;2023-04-06T04:28:37;19.20;60.90
76878;DHT22;65843;50.692;12.844;2023-04-06T04:29:38;19.20;60.80
76878;DHT22;65843;50.692;12.844;2023-04-06T04:30:39;19.20;60.90
76878;DHT22;65843;50.692;12.844;2023-04-06T04:31:40;19.20;61.00
76878;DHT22;65843;50.692;12.844;2023-04-06T04:32:40;19.20;60.80
76878;DHT22;65843;50.692;12.844;2023-04-06T04:33:41;19.20;60.90
76878;DHT22;65843;50.692;12.844;2023-04-06T04:34:42;19.20;60.80
76878;DHT22;65843;50.692;12.844;2023-04-06T04:35:43;19.20;60.70
76878;DHT22;65843;50.692;12.844;2023-04-06T04:36:44;19.20;60.70
76878;DHT22;65843;50.692;12.844;2023-04-06T04:37:45;19.10;60.60
76878;DHT22;65843;50.692;12.844;2023-04-06T04:38:46;19.10;60.70
76878;DHT22;65843;50.692;12.844;2023-04-06T04:39:47;19.20;60.50
76878;DHT22;65843;50.692;12.844;2023-04-06T04:40:48;19.10;60.70
76878;DHT22;65843;50.692;12.844;2023-04-06T04:41:49;19.10;60.50
76878;DHT22;65843;50.692;12.844;2023-04-06T04:42:50;19.10;60.60
76878;DHT22;65843;50.692;12.844;2023-04-06T04:43:54;19.10;60.40
76878;DHT22;65843;50.692;12.844;2023-04-06T04:44:55;19.10;60.50
76878;DHT22;65843;50.692;12.844;2023-04-06T04:45:56;19.10;60.50
76878;DHT22;65843;50.692;12.844;2023-04-06T04:46:59;19.10;60.50
76878;DHT22;65843;50.692;12.844;2023-04-06T04:48:00;19.10;60.50
76878;DHT22;65843;50.692;12.844;2023-04-06T04:49:01;19.10;60.40
76878;DHT22;65843;50.692;12.844;2023-04-06T04:50:02;19.10;60.40
76878;DHT22;65843;50.692;12.844;2023-04-06T04:51:04;19.10;60.50
76878;DHT22;65843;50.692;12.844;2023-04-06T04:52:05;19.10;60.70
76878;DHT22;65843;50.692;12.844;2023-04-06T04:53:06;19.10;60.60
76878;DHT22;65843;50.692;12.844;2023-04-06T04:54:07;19.10;60.70
76878;DHT22;65843;50.692;12.844;2023-04-06T04:55:08;19.10;60.40
76878;DHT22;65843;50.692;12.844;2023-04-06T04:56:09;19.10;60.20
76878;DHT22;65843;50.692;12.844;2023-04-06T04:57:10;19.10;60.30
76878;DHT22;65843;50.692;12.844;2023-04-06T04:58:11;19.10;60.10
76878;DHT22;65843;50.692;12.844;2023-04-06T04:59:16;19.00;60.10
76878;DHT22;65843;50.692;12.844;2023-04-06T05:00:17;19.00;60.10
76878;DHT22;65843;50.692;12.844;2023-04-06T05:01:18;19.00;60.00
76878;DHT22;65843;50.692;12.844;2023-04-06T05:02:19;19.00;60.00
76878;DHT22;65843;50.692;12.844;2023-04-06T05:03:21;19.00;60.00
76878;DHT22;65843;50.692;12.844;2023-04-06T05:04:22;19.00;60.00
76878;DHT22;65843;50.692;12.844;2023-04-06T05:05:24;19.00;60.00
76878;DHT22;65843;50.692;12.844;2023-04-06T05:06:25;19.00;60.00
76878;DHT22;65843;50.692;12.844;2023-04-06T05:07:27;18.90;59.90
76878;DHT22;65843;50.692;12.844;2023-04-06T05:08:27;18.90;59.90
76878;DHT22;65843;50.692;12.844;2023-04-06T05:09:31;18.90;59.70
76878;DHT22;65843;50.692;12.844;2023-04-06T05:10:32;18.90;58.80
76878;DHT22;65843;50.692;12.844;2023-04-06T05:11:33;18.90;57.90
76878;DHT22;65843;50.692;12.844;2023-04-06T05:12:34;18.80;57.00
76878;DHT22;65843;50.692;12.844;2023-04-06T05:13:36;18.80;56.50
76878;DHT22;65843;50.692;12.844;2023-04-06T05:14:37;18.80;56.40
76878;DHT22;65843;50.692;12.844;2023-04-06T05:15:37;18.80;56.60
76878;DHT22;65843;50.692;12.844;2023-04-06T05:16:38;18.80;56.10
76878;DHT22;65843;50.692;12.844;2023-04-06T05:17:39;18.70;55.90
76878;DHT22;65843;50.692;12.844;2023-04-06T05:18:40;18.70;55.50
76878;DHT22;65843;50.692;12.844;2023-04-06T05:19:41;18.70;55.70
76878;DHT22;65843;50.692;12.844;2023-04-06T05:20:42;18.70;55.40
76878;DHT22;65843;50.692;12.844;2023-04-06T05:21:43;18.70;54.80
76878;DHT22;65843;50.692;12.844;2023-04-06T05:22:45;18.70;55.10
76878;DHT22;65843;50.692;12.844;2023-04-06T05:23:45;18.70;54.80
76878;DHT22;65843;50.692;12.844;2023-04-06T05:24:46;18.60;55.00
76878;DHT22;65843;50.692;12.844;2023-04-06T05:25:47;18.60;54.60
76878;DHT22;65843;50.692;12.844;2023-04-06T05:26:48;18.60;54.90
76878;DHT22;65843;50.692;12.844;2023-04-06T05:27:49;18.60;54.40
76878;DHT22;65843;50.692;12.844;2023-04-06T05:28:51;18.60;55.10
76878;DHT22;65843;50.692;12.844;2023-04-06T05:29:51;18.60;55.00
76878;DHT22;65843;50.692;12.844;2023-04-06T05:30:52;18.60;55.00
76878;DHT22;65843;50.692;12.844;2023-04-06T05:31:53;18.50;55.00
76878;DHT22;65843;50.692;12.844;2023-04-06T05:32:55;18.60;54.70
76878;DHT22;65843;50.692;12.844;2023-04-06T05:33:56;18.50;54.70
76878;DHT22;65843;50.692;12.844;2023-04-06T05:34:57;18.50;54.40
76878;DHT22;65843;50.692;12.844;2023-04-06T05:35:58;18.50;53.90
76878;DHT22;65843;50.692;12.844;2023-04-06T05:37:01;18.50;53.70
76878;DHT22;65843;50.692;12.844;2023-04-06T05:38:02;18.50;54.40
76878;DHT22;65843;50.692;12.844;2023-04-06T05:39:03;18.50;54.30
76878;DHT22;65843;50.692;12.844;2023-04-06T05:40:04;18.40;54.00
76878;DHT22;65843;50.692;12.844;2023-04-06T05:41:05;18.40;54.50
76878;DHT22;65843;50.692;12.844;2023-04-06T05:42:06;18.40;55.10
76878;DHT22;65843;50.692;12.844;2023-04-06T05:43:07;18.50;55.10
76878;DHT22;65843;50.692;12.844;2023-04-06T05:44:08;18.50;55.20
76878;DHT22;65843;50.692;12.844;2023-04-06T05:45:10;18.50;55.00
76878;DHT22;65843;50.692;12.844;2023-04-06T05:46:17;18.50;54.80
76878;DHT22;65843;50.692;12.844;2023-04-06T05:47:18;18.50;53.20
76878;DHT22;65843;50.692;12.844;2023-04-06T05:48:20;18.40;49.80
76878;DHT22;65843;50.692;12.844;2023-04-06T05:49:21;18.40;48.20
76878;DHT22;65843;50.692;12.844;2023-04-06T05:50:22;18.40;48.70
76878;DHT22;65843;50.692;12.844;2023-04-06T05:51:23;18.30;47.00
76878;DHT22;65843;50.692;12.844;2023-04-06T05:52:24;18.20;48.20
76878;DHT22;65843;50.692;12.844;2023-04-06T05:53:25;18.20;47.50
76878;DHT22;65843;50.692;12.844;2023-04-06T05:54:26;18.10;48.90
76878;DHT22;65843;50.692;12.844;2023-04-06T05:55:27;18.10;47.50
76878;DHT22;65843;50.692;12.844;2023-04-06T05:56:28;18.00;47.30
76878;DHT22;65843;50.692;12.844;2023-04-06T05:57:30;18.00;47.00
76878;DHT22;65843;50.692;12.844;2023-04-06T05:58:31;17.90;46.80
76878;DHT22;65843;50.692;12.844;2023-04-06T05:59:33;17.80;46.60
76878;DHT22;65843;50.692;12.844;2023-04-06T06:00:34;17.80;47.40
76878;DHT22;65843;50.692;12.844;2023-04-06T06:01:35;17.80;47.80
76878;DHT22;65843;50.692;12.844;2023-04-06T06:02:36;17.80;47.20
76878;DHT22;65843;50.692;12.844;2023-04-06T06:03:37;17.70;47.20
76878;DHT22;65843;50.692;12.844;2023-04-06T06:04:38;17.70;46.50
76878;DHT22;65843;50.692;12.844;2023-04-06T06:05:39;17.60;46.90
76878;DHT22;65843;50.692;12.844;2023-04-06T06:06:40;17.60;46.50
76878;DHT22;65843;50.692;12.844;2023-04-06T06:07:41;17.60;46.40
76878;DHT22;65843;50.692;12.844;2023-04-06T06:08:42;17.60;46.00
76878;DHT22;65843;50.692;12.844;2023-04-06T06:09:43;17.60;45.80
76878;DHT22;65843;50.692;12.844;2023-04-06T06:10:44;17.50;45.70
76878;DHT22;65843;50.692;12.844;2023-04-06T06:11:45;17.50;45.80
76878;DHT22;65843;50.692;12.844;2023-04-06T06:12:46;17.50;45.70
76878;DHT22;65843;50.692;12.844;2023-04-06T06:13:47;17.50;45.70
76878;DHT22;65843;50.692;12.844;2023-04-06T06:14:49;17.50;45.40
76878;DHT22;65843;50.692;12.844;2023-04-06T06:15:50;17.50;45.30
76878;DHT22;65843;50.692;12.844;2023-04-06T06:16:51;17.50;44.90
76878;DHT22;65843;50.692;12.844;2023-04-06T06:17:52;17.50;44.80
76878;DHT22;65843;50.692;12.844;2023-04-06T06:18:53;17.40;44.80
76878;DHT22;65843;50.692;12.844;2023-04-06T06:19:54;17.40;44.70